createdAt,value
2022-08-17T00:02:26.467Z,50.38
2022-08-17T00:04:55.252Z,50.47
2022-08-17T00:07:22.499Z,50.23
2022-08-17T00:09:50.223Z,50.08
2022-08-17T00:12:40.538Z,50.26
2022-08-17T00:15:04.963Z,50.19
2022-08-17T00:17:32.657Z,50.33
2022-08-17T00:20:00.155Z,50.56
2022-08-17T00:22:34.933Z,50.60
2022-08-17T00:25:09.787Z,50.95
2022-08-17T00:27:36.857Z,50.80
2022-08-17T00:30:06.674Z,50.50
2022-08-17T00:33:12.481Z,50.67
2022-08-17T00:35:27.956Z,50.94
2022-08-17T00:37:55.663Z,51.11
2022-08-17T00:40:22.433Z,51.02
2022-08-17T00:42:53.195Z,51.15
2022-08-17T00:45:20.359Z,51.10
2022-08-17T00:47:47.428Z,51.20
2022-08-17T00:50:16.786Z,50.54
2022-08-17T00:52:55.150Z,50.51
2022-08-17T00:55:23.462Z,50.26
2022-08-17T00:57:55.246Z,50.35
2022-08-17T01:00:26.735Z,50.75
2022-08-17T01:02:58.050Z,50.95
2022-08-17T01:05:29.938Z,51.05
2022-08-17T01:07:57.205Z,50.95
2022-08-17T01:10:58.416Z,51.13
2022-08-17T01:13:23.321Z,51.16
2022-08-17T01:15:56.745Z,51.61
2022-08-17T01:18:25.014Z,51.37
2022-08-17T01:20:53.883Z,51.88
2022-08-17T01:23:23.269Z,51.44
2022-08-17T01:25:51.993Z,51.60
2022-08-17T01:28:52.490Z,51.84
2022-08-17T01:31:08.421Z,51.96
2022-08-17T01:33:35.493Z,51.89
2022-08-17T01:36:03.510Z,52.04
2022-08-17T01:38:31.755Z,52.12
2022-08-17T01:41:06.999Z,52.73
2022-08-17T01:43:45.457Z,52.99
2022-08-17T01:46:16.923Z,52.43
2022-08-17T01:48:47.210Z,52.33
2022-08-17T01:51:15.450Z,52.73
2022-08-17T01:53:45.459Z,52.84
2022-08-17T01:56:15.530Z,53.14
2022-08-17T01:58:42.921Z,52.90
2022-08-17T02:01:10.775Z,52.76
2022-08-17T02:03:38.111Z,52.79
2022-08-17T02:06:06.309Z,52.55
2022-08-17T02:09:02.245Z,52.67
2022-08-17T02:11:34.478Z,52.72
2022-08-17T02:14:03.106Z,53.08
2022-08-17T02:16:36.894Z,53.23
2022-08-17T02:19:10.264Z,53.06
2022-08-17T02:21:38.016Z,53.21
2022-08-17T02:24:06.744Z,53.00
2022-08-17T02:26:33.657Z,53.04
2022-08-17T02:29:00.506Z,52.89
2022-08-17T02:31:27.198Z,53.10
2022-08-17T02:34:03.363Z,52.93
2022-08-17T02:36:33.782Z,53.06
2022-08-17T02:39:06.490Z,53.27
2022-08-17T02:41:33.542Z,52.86
2022-08-17T02:44:01.035Z,52.70
2022-08-17T02:46:28.300Z,53.05
2022-08-17T02:48:55.035Z,52.87
2022-08-17T02:51:22.090Z,53.12
2022-08-17T02:53:48.926Z,52.93
2022-08-17T02:56:15.871Z,53.20
2022-08-17T02:58:42.538Z,53.21
2022-08-17T03:01:09.930Z,52.76
2022-08-17T03:06:07.591Z,52.79
2022-08-17T03:08:34.639Z,53.10
2022-08-17T03:13:30.759Z,52.97
2022-08-17T03:15:57.522Z,53.12
2022-08-17T03:18:26.398Z,53.02
2022-08-17T03:20:59.061Z,52.99
2022-08-17T03:23:27.298Z,52.88
2022-08-17T03:25:55.846Z,52.64
2022-08-17T03:28:24.292Z,52.99
2022-08-17T03:30:52.152Z,52.96
2022-08-17T03:33:21.448Z,53.47
2022-08-17T03:35:48.459Z,53.45
2022-08-17T03:38:17.022Z,53.80
2022-08-17T03:40:57.509Z,53.25
2022-08-17T03:43:32.470Z,54.45
2022-08-17T03:46:34.138Z,53.95
2022-08-17T03:49:26.111Z,54.35
2022-08-17T03:52:15.597Z,54.28
2022-08-17T03:55:04.361Z,54.69
2022-08-17T03:57:31.382Z,53.77
2022-08-17T04:00:04.797Z,54.55
2022-08-17T04:02:40.303Z,54.50
2022-08-17T04:05:07.417Z,54.35
2022-08-17T04:07:34.062Z,54.47
2022-08-17T04:10:00.767Z,54.42
2022-08-17T04:12:30.723Z,54.64
2022-08-17T04:14:57.746Z,54.83
2022-08-17T04:22:30.069Z,55.14
2022-08-17T04:25:14.997Z,55.54
2022-08-17T04:27:41.688Z,54.95
2022-08-17T04:30:09.097Z,55.06
2022-08-17T04:33:04.465Z,55.79
2022-08-17T04:35:41.685Z,55.71
2022-08-17T04:38:11.968Z,55.33
2022-08-17T04:40:57.559Z,55.41
2022-08-17T04:43:25.633Z,55.36
2022-08-17T04:45:58.234Z,55.04
2022-08-17T04:48:36.277Z,55.56
2022-08-17T04:51:09.856Z,55.56
2022-08-17T04:54:54.382Z,57.22
2022-08-17T04:57:21.044Z,55.68
2022-08-17T04:59:47.738Z,55.67
2022-08-17T05:02:14.839Z,55.70
2022-08-17T05:04:41.748Z,55.85
2022-08-17T05:07:08.519Z,55.63
2022-08-17T05:09:35.259Z,55.92
2022-08-17T05:12:02.380Z,55.51
2022-08-17T05:14:33.437Z,55.66
2022-08-17T05:21:30.824Z,55.76
2022-08-17T05:23:58.553Z,55.75
2022-08-17T05:26:29.404Z,56.11
2022-08-17T05:28:59.520Z,55.98
2022-08-17T05:31:27.035Z,55.65
2022-08-17T05:33:53.746Z,54.95
2022-08-17T05:36:42.633Z,54.69
2022-08-17T05:39:07.500Z,54.19
2022-08-17T05:41:34.221Z,54.23
2022-08-17T05:44:00.874Z,53.81
2022-08-17T05:46:36.396Z,54.48
2022-08-17T05:49:07.781Z,54.00
2022-08-17T05:51:48.800Z,53.99
2022-08-17T05:54:54.412Z,54.19
2022-08-17T05:57:53.561Z,54.21
2022-08-17T06:00:32.124Z,53.52
2022-08-17T06:03:27.493Z,54.03
2022-08-17T06:06:25.361Z,53.79
2022-08-17T06:09:00.807Z,53.16
2022-08-17T06:11:39.283Z,53.31
2022-08-17T06:18:31.807Z,52.68
2022-08-17T06:21:01.007Z,52.81
2022-08-17T06:23:35.184Z,52.61
2022-08-17T06:26:05.833Z,51.97
2022-08-17T06:28:47.403Z,52.04
2022-08-17T06:31:22.193Z,51.90
2022-08-17T06:33:49.352Z,52.01
2022-08-17T06:36:49.697Z,51.97
2022-08-17T06:39:44.521Z,52.18
2022-08-17T06:43:02.817Z,52.03
2022-08-17T06:45:27.721Z,51.97
2022-08-17T06:48:15.581Z,52.16
2022-08-17T06:50:45.047Z,51.64
2022-08-17T06:53:22.540Z,51.43
2022-08-17T06:55:58.009Z,51.70
2022-08-17T06:58:29.683Z,51.28
2022-08-17T07:01:01.001Z,50.94
2022-08-17T07:03:44.472Z,50.83
2022-08-17T07:06:13.945Z,50.97
2022-08-17T07:08:52.930Z,50.86
2022-08-17T07:11:27.180Z,50.90
2022-08-17T07:13:57.925Z,50.85
2022-08-17T07:16:28.795Z,51.10
2022-08-17T07:18:57.219Z,50.92
2022-08-17T07:21:50.286Z,51.07
2022-08-17T07:28:23.157Z,50.92
2022-08-17T07:30:53.794Z,51.25
2022-08-17T07:33:27.665Z,50.99
2022-08-17T07:35:57.276Z,50.80
2022-08-17T07:38:28.907Z,51.13
2022-08-17T07:41:02.114Z,51.28
2022-08-17T07:43:37.929Z,51.07
2022-08-17T07:46:34.016Z,51.19
2022-08-17T07:49:00.704Z,51.30
2022-08-17T07:51:29.100Z,51.29
2022-08-17T07:54:13.530Z,51.19
2022-08-17T07:57:03.810Z,51.35
2022-08-17T07:59:34.301Z,51.22
2022-08-17T08:02:06.139Z,51.10
2022-08-17T08:07:48.062Z,51.26
2022-08-17T08:10:32.320Z,51.77
2022-08-17T08:13:15.336Z,51.40
2022-08-17T08:16:16.806Z,51.41
2022-08-17T08:18:55.327Z,51.08
2022-08-17T08:21:32.140Z,50.99
2022-08-17T08:24:33.434Z,51.43
2022-08-17T08:31:52.194Z,51.61
2022-08-17T08:34:44.436Z,51.65
2022-08-17T08:37:49.907Z,51.50
2022-08-17T08:40:35.531Z,51.15
2022-08-17T08:43:22.010Z,51.03
2022-08-17T08:46:21.859Z,50.95
2022-08-17T08:49:12.273Z,51.38
2022-08-17T08:51:55.726Z,51.20
2022-08-17T08:58:59.524Z,51.35
2022-08-17T09:01:47.792Z,51.84
2022-08-17T09:04:24.782Z,51.54
2022-08-17T09:07:29.558Z,52.56
2022-08-17T09:10:24.592Z,51.57
2022-08-17T09:13:09.601Z,51.77
2022-08-17T09:16:00.178Z,52.12
2022-08-17T09:18:59.260Z,52.36
2022-08-17T09:21:48.551Z,51.96
2022-08-17T09:24:25.643Z,51.54
2022-08-17T09:27:30.630Z,52.17
2022-08-17T09:30:04.805Z,51.96
2022-08-17T09:32:38.110Z,52.04
2022-08-17T09:35:14.388Z,52.11
2022-08-17T09:37:47.023Z,52.15
2022-08-17T09:40:16.108Z,52.70
2022-08-17T09:42:49.258Z,51.99
2022-08-17T09:45:42.530Z,52.01
2022-08-17T09:48:37.678Z,51.98
2022-08-17T09:51:22.455Z,51.64
2022-08-17T09:53:50.293Z,51.30
2022-08-17T09:56:43.768Z,51.42
2022-08-17T09:59:38.723Z,51.50
2022-08-17T10:02:33.327Z,52.15
2022-08-17T10:05:04.739Z,51.94
2022-08-17T10:07:44.472Z,52.23
2022-08-17T10:10:56.266Z,52.73
2022-08-17T10:13:36.157Z,52.66
2022-08-17T10:16:30.944Z,52.52
2022-08-17T10:19:27.793Z,52.54
2022-08-17T10:22:34.883Z,52.09
2022-08-17T10:25:54.531Z,52.46
2022-08-17T10:28:30.023Z,52.55
2022-08-17T10:34:18.890Z,52.54
2022-08-17T10:36:56.510Z,52.67
2022-08-17T10:39:34.242Z,52.79
2022-08-17T10:42:33.221Z,53.41
2022-08-17T10:45:07.147Z,52.97
2022-08-17T10:48:04.310Z,53.94
2022-08-17T10:50:57.654Z,53.66
2022-08-17T10:53:32.552Z,53.65
2022-08-17T10:56:13.201Z,55.10
2022-08-17T10:58:49.603Z,56.01
2022-08-17T11:01:17.277Z,55.63
2022-08-17T11:03:53.407Z,56.29
2022-08-17T11:06:32.754Z,56.15
2022-08-17T11:09:09.509Z,56.52
2022-08-17T11:12:01.316Z,58.53
2022-08-17T11:15:13.331Z,59.00
2022-08-17T11:18:01.896Z,58.53
2022-08-17T11:20:39.343Z,59.31
2022-08-17T11:23:29.261Z,59.45
2022-08-17T11:26:01.802Z,58.11
2022-08-17T11:28:35.768Z,58.22
2022-08-17T11:31:09.219Z,59.65
2022-08-17T11:33:36.638Z,59.04
2022-08-17T11:36:31.631Z,61.28
2022-08-17T11:39:20.060Z,60.77
2022-08-17T11:41:57.511Z,59.40
2022-08-17T11:44:51.410Z,59.18
2022-08-17T11:47:53.014Z,58.90
2022-08-17T11:51:09.175Z,58.67
2022-08-17T11:53:38.583Z,57.75
2022-08-17T11:56:10.884Z,57.66
2022-08-17T11:59:19.677Z,57.65
2022-08-17T12:01:57.021Z,57.28
2022-08-17T12:04:32.644Z,57.18
2022-08-17T12:07:11.331Z,57.10
2022-08-17T12:09:43.010Z,56.95
2022-08-17T12:12:14.445Z,56.83
2022-08-17T12:15:11.132Z,56.31
2022-08-17T12:17:40.637Z,56.58
2022-08-17T12:20:15.535Z,56.89
2022-08-17T12:23:04.401Z,56.69
2022-08-17T12:26:22.595Z,56.73
2022-08-17T12:28:57.361Z,56.26
2022-08-17T12:31:31.413Z,56.21
2022-08-17T12:34:00.351Z,55.97
2022-08-17T12:36:28.629Z,55.92
2022-08-17T12:39:13.111Z,56.01
2022-08-17T12:41:47.369Z,56.67
2022-08-17T12:44:21.608Z,56.62
2022-08-17T12:47:01.686Z,56.28
2022-08-17T12:49:40.799Z,55.92
2022-08-17T12:52:17.175Z,55.84
2022-08-17T12:54:48.397Z,55.47
2022-08-17T12:57:24.893Z,55.67
2022-08-17T12:59:54.919Z,55.50
2022-08-17T13:02:29.145Z,54.58
2022-08-17T13:04:58.951Z,54.89
2022-08-17T13:07:42.439Z,55.36
2022-08-17T13:10:16.774Z,55.17
2022-08-17T13:12:43.602Z,54.82
2022-08-17T13:15:20.753Z,54.16
2022-08-17T13:18:06.874Z,54.09
2022-08-17T13:20:34.750Z,54.47
2022-08-17T13:23:11.425Z,54.07
2022-08-17T13:25:39.254Z,53.48
2022-08-17T13:28:05.959Z,53.57
2022-08-17T13:30:33.507Z,53.45
2022-08-17T13:33:04.782Z,53.54
2022-08-17T13:35:49.315Z,53.58
2022-08-17T13:38:47.211Z,53.29
2022-08-17T13:41:36.209Z,52.82
2022-08-17T13:44:29.675Z,53.20
2022-08-17T13:46:57.487Z,53.24
2022-08-17T13:49:41.898Z,52.72
2022-08-17T13:52:52.201Z,52.51
2022-08-17T13:55:20.085Z,52.63
2022-08-17T13:58:24.547Z,52.51
2022-08-17T14:00:51.777Z,52.21
2022-08-17T14:03:19.758Z,52.18
2022-08-17T14:05:48.119Z,52.36
2022-08-17T14:08:16.378Z,52.04
2022-08-17T14:10:45.170Z,52.04
2022-08-17T14:13:15.246Z,52.08
2022-08-17T14:15:54.912Z,52.01
2022-08-17T14:18:42.007Z,52.04
2022-08-17T14:21:10.413Z,51.78
2022-08-17T14:23:37.262Z,51.40
2022-08-17T14:26:04.437Z,51.34
2022-08-17T14:28:31.092Z,51.42
2022-08-17T14:31:00.633Z,50.98
2022-08-17T14:33:28.446Z,51.01
2022-08-17T14:35:57.384Z,50.87
2022-08-17T14:38:24.197Z,50.52
2022-08-17T14:40:50.922Z,50.66
2022-08-17T14:43:17.866Z,50.68
2022-08-17T14:45:44.587Z,50.33
2022-08-17T14:48:12.446Z,50.14
2022-08-17T14:50:41.888Z,49.93
2022-08-17T14:53:11.796Z,49.64
2022-08-17T14:55:40.671Z,49.74
2022-08-17T14:58:08.791Z,49.40
2022-08-17T15:00:38.493Z,49.02
2022-08-17T15:03:05.664Z,49.08
2022-08-17T15:05:58.856Z,48.74
2022-08-17T15:08:25.650Z,48.89
2022-08-17T15:10:54.344Z,49.00
2022-08-17T15:13:24.048Z,49.14
2022-08-17T15:15:51.330Z,49.27
2022-08-17T15:18:23.182Z,48.55
2022-08-17T15:20:50.170Z,48.77
2022-08-17T15:23:19.620Z,48.89
2022-08-17T15:25:47.944Z,49.47
2022-08-17T15:28:15.282Z,49.47
2022-08-17T15:30:45.292Z,49.32
2022-08-17T15:33:17.399Z,48.73
2022-08-17T15:35:44.881Z,49.17
2022-08-17T15:38:12.933Z,48.32
2022-08-17T15:41:58.114Z,47.71
2022-08-17T15:44:32.375Z,47.79
2022-08-17T15:47:02.173Z,47.89
2022-08-17T15:49:28.905Z,47.63
2022-08-17T15:51:56.150Z,47.84
2022-08-17T15:54:23.478Z,47.99
2022-08-17T15:56:53.884Z,47.42
2022-08-17T15:59:20.578Z,47.68
2022-08-17T16:03:13.484Z,47.28
2022-08-17T16:04:40.216Z,47.58
2022-08-17T16:07:10.727Z,48.06
2022-08-17T16:09:38.372Z,47.93
2022-08-17T16:12:13.375Z,48.12
2022-08-17T16:14:47.977Z,48.35
2022-08-17T16:17:50.195Z,48.72
2022-08-17T16:20:04.724Z,49.17
2022-08-17T16:22:36.048Z,49.20
2022-08-17T16:25:08.446Z,49.61
2022-08-17T16:27:36.163Z,49.42
2022-08-17T16:30:05.217Z,49.54
2022-08-17T16:32:32.979Z,49.75
2022-08-17T16:35:49.441Z,49.30
2022-08-17T16:38:22.153Z,49.28
2022-08-17T16:41:45.475Z,49.55
2022-08-17T16:44:17.244Z,49.52
2022-08-17T16:46:45.722Z,49.71
2022-08-17T16:49:24.467Z,49.78
2022-08-17T17:00:50.620Z,50.14
2022-08-17T17:03:20.894Z,50.26
2022-08-17T17:06:16.071Z,50.71
2022-08-17T17:08:53.792Z,50.41
2022-08-17T17:11:38.277Z,50.41
2022-08-17T17:14:11.992Z,50.29
2022-08-17T17:16:52.905Z,50.30
2022-08-17T17:19:51.491Z,50.25
2022-08-17T17:22:42.283Z,50.70
2022-08-17T17:25:19.813Z,50.30
2022-08-17T17:28:28.264Z,50.92
2022-08-17T17:31:16.887Z,50.79
2022-08-17T17:33:53.731Z,50.72
2022-08-17T17:36:38.193Z,51.05
2022-08-17T17:39:10.160Z,50.89
2022-08-17T17:41:58.551Z,51.27
2022-08-17T17:44:30.506Z,50.91
2022-08-17T17:46:59.938Z,50.72
2022-08-17T17:49:30.442Z,50.79
2022-08-17T17:52:14.221Z,51.08
2022-08-17T17:55:02.185Z,50.86
2022-08-17T17:58:04.154Z,50.61
2022-08-17T18:00:39.268Z,51.07
2022-08-17T18:03:35.305Z,51.33
2022-08-17T18:06:05.179Z,51.23
2022-08-17T18:08:58.022Z,51.25
2022-08-17T18:15:50.980Z,51.42
2022-08-17T18:19:12.980Z,51.48
2022-08-17T18:21:45.753Z,51.10
2022-08-17T18:24:13.480Z,51.28
2022-08-17T18:26:55.264Z,51.78
2022-08-17T18:34:43.804Z,52.37
2022-08-17T18:37:10.653Z,51.92
2022-08-17T18:39:38.240Z,52.07
2022-08-17T18:42:24.081Z,52.12
2022-08-17T18:44:54.935Z,51.47
2022-08-17T18:47:27.629Z,51.77
2022-08-17T18:50:26.236Z,52.45
2022-08-17T18:52:55.117Z,52.46
2022-08-17T18:55:24.692Z,52.45
2022-08-17T18:57:53.482Z,52.40
2022-08-17T19:00:41.622Z,53.16
2022-08-17T19:03:20.306Z,53.18
2022-08-17T19:05:51.310Z,52.93
2022-08-17T19:08:33.960Z,53.59
2022-08-17T19:11:23.758Z,52.95
2022-08-17T19:14:00.980Z,53.30
2022-08-17T19:16:32.384Z,52.87
2022-08-17T19:19:04.995Z,52.83
2022-08-17T19:21:36.275Z,53.53
2022-08-17T19:24:19.306Z,53.79
2022-08-17T19:26:55.059Z,53.45
2022-08-17T19:29:34.845Z,53.82
2022-08-17T19:32:04.483Z,53.78
2022-08-17T19:34:34.579Z,53.77
2022-08-17T19:37:32.545Z,54.40
2022-08-17T19:40:29.294Z,53.98
2022-08-17T19:43:54.670Z,54.34
2022-08-17T19:46:36.050Z,53.92
2022-08-17T19:49:07.654Z,54.04
2022-08-17T19:51:58.264Z,54.29
2022-08-17T19:54:31.547Z,54.05
2022-08-17T19:57:17.994Z,54.60
2022-08-17T19:59:48.707Z,55.98
2022-08-17T20:02:41.786Z,56.02
2022-08-17T20:05:13.886Z,57.34
2022-08-17T20:08:12.304Z,57.13
2022-08-17T20:10:41.574Z,55.87
2022-08-17T20:13:15.161Z,56.27
2022-08-17T20:15:44.182Z,55.72
2022-08-17T20:18:26.548Z,55.94
2022-08-17T20:21:20.463Z,56.83
2022-08-17T20:23:56.167Z,57.02
2022-08-17T20:26:42.778Z,57.18
2022-08-17T20:29:40.247Z,56.80
2022-08-17T20:32:16.918Z,55.97
2022-08-17T20:34:46.071Z,55.18
2022-08-17T20:37:12.716Z,54.94
2022-08-17T20:39:41.630Z,55.14
2022-08-17T20:42:30.255Z,55.39
2022-08-17T20:45:01.982Z,54.92
2022-08-17T20:48:01.189Z,55.77
2022-08-17T20:50:37.827Z,55.59
2022-08-17T20:53:08.174Z,55.03
2022-08-17T20:55:51.156Z,55.30
2022-08-17T20:58:30.869Z,55.40
2022-08-17T21:00:58.806Z,55.04
2022-08-17T21:03:28.614Z,54.84
2022-08-17T21:06:17.922Z,54.64
2022-08-17T21:09:03.468Z,54.92
2022-08-17T21:11:57.061Z,54.84
2022-08-17T21:14:37.269Z,55.08
2022-08-17T21:17:14.910Z,55.87
2022-08-17T21:20:10.973Z,56.86
2022-08-17T21:23:27.251Z,56.95
2022-08-17T21:26:30.766Z,55.87
2022-08-17T21:29:31.211Z,56.25
2022-08-17T21:31:59.406Z,55.38
2022-08-17T21:34:32.874Z,54.99
2022-08-17T21:37:19.742Z,54.38
2022-08-17T21:40:12.473Z,54.21
2022-08-17T21:42:48.275Z,53.89
2022-08-17T21:45:23.657Z,53.89
2022-08-17T21:49:13.432Z,54.10
2022-08-17T21:51:59.179Z,55.52
2022-08-17T21:54:38.774Z,55.19
2022-08-17T21:57:07.965Z,54.66
2022-08-17T21:59:38.161Z,54.82
2022-08-17T22:02:09.863Z,54.93
2022-08-17T22:04:41.569Z,55.67
2022-08-17T22:07:11.339Z,55.59
2022-08-17T22:09:48.798Z,55.61
2022-08-17T22:12:17.690Z,55.25
2022-08-17T22:14:56.659Z,55.51
2022-08-17T22:17:35.353Z,55.43
2022-08-17T22:20:17.275Z,55.48
2022-08-17T22:23:08.437Z,55.30
2022-08-17T22:25:40.934Z,55.55
2022-08-17T22:28:10.136Z,55.44
2022-08-17T22:31:02.065Z,55.80
2022-08-17T22:33:39.948Z,55.78
2022-08-17T22:36:26.826Z,56.47
2022-08-17T22:38:58.430Z,56.16
2022-08-17T22:41:40.426Z,55.93
2022-08-17T22:44:31.596Z,57.05
2022-08-17T22:47:19.546Z,56.06
2022-08-17T22:49:58.742Z,56.27
2022-08-17T22:53:00.655Z,56.61
2022-08-17T22:55:48.119Z,56.23
2022-08-17T22:58:41.858Z,56.65
2022-08-17T23:01:27.634Z,57.08
2022-08-17T23:03:57.290Z,56.23
2022-08-17T23:06:24.276Z,55.99
2022-08-17T23:08:54.956Z,55.33
2022-08-17T23:11:36.944Z,55.74
2022-08-17T23:14:15.661Z,56.05
2022-08-17T23:16:42.564Z,55.92
2022-08-17T23:19:10.738Z,55.99
2022-08-17T23:21:37.833Z,55.94
2022-08-17T23:24:05.840Z,55.93
2022-08-17T23:26:37.841Z,55.96
2022-08-17T23:29:08.853Z,55.58
2022-08-17T23:31:36.852Z,54.43
2022-08-17T23:34:04.818Z,54.10
2022-08-17T23:36:34.707Z,54.56
2022-08-17T23:39:01.441Z,54.58
2022-08-17T23:41:31.860Z,54.62
2022-08-17T23:43:59.604Z,54.67
2022-08-17T23:46:26.435Z,54.88
2022-08-17T23:48:53.943Z,55.01
2022-08-17T23:51:23.970Z,54.92
2022-08-17T23:53:54.321Z,55.16
2022-08-17T23:56:27.400Z,55.22
2022-08-17T23:58:55.276Z,55.05
